Horsham, Australia
Current Conditions -  °F | °C
As of 1:00 PM on Friday 19 Dec 2014 (Local Time) from YMTG Reporting Station
Broken Clouds Broken Clouds  
Wind Chill: 64°   Ceiling: 5000
Heat Index: 64°   Visibility: 6mi
Dew Point: 39°   Wind: 15mph
Humidity: 40%   Direction: 260°W
Pressure: 30.09"   Gusts: NA
Location:  36.71°S, 142.2°E
Report Text: YMTG 190200Z AUTO 26013KT 9999 // BKN050 18/04 Q1019
Loading
Personal Weather Stations






























Interactive Weather Map New forecast layout! Learn more

10-Day Weather Forecast

Advertisements
Track Severe Weather on mobile